sensor_id;sensor_type;location;lat;lon;timestamp;P1;durP1;ratioP1;P2;durP2;ratioP2
4166;SDS011;2097;51.104;7.150;2023-02-20T00:02:23;59.43;;;2.23;;
4166;SDS011;2097;51.104;7.150;2023-02-20T00:04:50;59.30;;;2.07;;
4166;SDS011;2097;51.104;7.150;2023-02-20T00:07:17;59.33;;;1.87;;
4166;SDS011;2097;51.104;7.150;2023-02-20T00:09:44;59.37;;;1.93;;
4166;SDS011;2097;51.104;7.150;2023-02-20T00:12:11;59.70;;;2.20;;
4166;SDS011;2097;51.104;7.150;2023-02-20T00:14:37;59.47;;;2.17;;
4166;SDS011;2097;51.104;7.150;2023-02-20T00:17:04;59.37;;;2.20;;
4166;SDS011;2097;51.104;7.150;2023-02-20T00:19:32;59.57;;;2.30;;
4166;SDS011;2097;51.104;7.150;2023-02-20T00:21:59;59.63;;;2.30;;
4166;SDS011;2097;51.104;7.150;2023-02-20T00:24:26;59.57;;;2.20;;
4166;SDS011;2097;51.104;7.150;2023-02-20T00:26:53;59.67;;;2.20;;
4166;SDS011;2097;51.104;7.150;2023-02-20T00:29:21;59.53;;;2.30;;
4166;SDS011;2097;51.104;7.150;2023-02-20T00:31:49;59.60;;;2.37;;
4166;SDS011;2097;51.104;7.150;2023-02-20T00:34:17;59.10;;;2.20;;
4166;SDS011;2097;51.104;7.150;2023-02-20T00:36:46;59.80;;;2.53;;
4166;SDS011;2097;51.104;7.150;2023-02-20T00:39:13;59.60;;;2.40;;
4166;SDS011;2097;51.104;7.150;2023-02-20T00:41:40;59.60;;;2.47;;
4166;SDS011;2097;51.104;7.150;2023-02-20T00:44:07;59.60;;;2.33;;
4166;SDS011;2097;51.104;7.150;2023-02-20T00:46:34;59.80;;;2.33;;
4166;SDS011;2097;51.104;7.150;2023-02-20T00:49:01;59.80;;;2.30;;
4166;SDS011;2097;51.104;7.150;2023-02-20T00:51:28;59.53;;;2.40;;
4166;SDS011;2097;51.104;7.150;2023-02-20T00:53:57;59.17;;;2.20;;
4166;SDS011;2097;51.104;7.150;2023-02-20T00:56:23;59.27;;;2.23;;
4166;SDS011;2097;51.104;7.150;2023-02-20T00:58:50;59.97;;;2.63;;
4166;SDS011;2097;51.104;7.150;2023-02-20T01:01:17;59.27;;;2.40;;
4166;SDS011;2097;51.104;7.150;2023-02-20T01:03:44;59.60;;;2.33;;
4166;SDS011;2097;51.104;7.150;2023-02-20T01:06:11;59.70;;;2.50;;
4166;SDS011;2097;51.104;7.150;2023-02-20T01:08:38;59.40;;;2.30;;
4166;SDS011;2097;51.104;7.150;2023-02-20T01:11:06;59.90;;;2.57;;
4166;SDS011;2097;51.104;7.150;2023-02-20T01:13:33;59.97;;;2.50;;
4166;SDS011;2097;51.104;7.150;2023-02-20T01:16:00;59.57;;;2.43;;
4166;SDS011;2097;51.104;7.150;2023-02-20T01:18:27;59.63;;;2.70;;
4166;SDS011;2097;51.104;7.150;2023-02-20T01:20:54;59.80;;;2.43;;
4166;SDS011;2097;51.104;7.150;2023-02-20T01:23:21;59.67;;;2.37;;
4166;SDS011;2097;51.104;7.150;2023-02-20T01:25:48;59.80;;;2.70;;
4166;SDS011;2097;51.104;7.150;2023-02-20T01:28:16;59.47;;;2.27;;
4166;SDS011;2097;51.104;7.150;2023-02-20T01:30:43;59.93;;;2.20;;
4166;SDS011;2097;51.104;7.150;2023-02-20T01:33:10;59.43;;;2.47;;
4166;SDS011;2097;51.104;7.150;2023-02-20T01:35:37;59.60;;;2.50;;
4166;SDS011;2097;51.104;7.150;2023-02-20T01:38:04;60.17;;;2.50;;
4166;SDS011;2097;51.104;7.150;2023-02-20T01:40:31;59.33;;;2.23;;
4166;SDS011;2097;51.104;7.150;2023-02-20T01:42:58;59.57;;;2.43;;
4166;SDS011;2097;51.104;7.150;2023-02-20T01:45:31;59.63;;;2.50;;
4166;SDS011;2097;51.104;7.150;2023-02-20T01:48:01;59.60;;;2.57;;
4166;SDS011;2097;51.104;7.150;2023-02-20T01:50:28;59.60;;;2.50;;
4166;SDS011;2097;51.104;7.150;2023-02-20T01:52:58;59.53;;;2.40;;
4166;SDS011;2097;51.104;7.150;2023-02-20T01:55:29;59.43;;;2.17;;
4166;SDS011;2097;51.104;7.150;2023-02-20T01:57:59;59.47;;;2.60;;
4166;SDS011;2097;51.104;7.150;2023-02-20T02:00:31;59.57;;;2.50;;
4166;SDS011;2097;51.104;7.150;2023-02-20T02:02:59;59.37;;;2.47;;
4166;SDS011;2097;51.104;7.150;2023-02-20T02:05:30;59.67;;;2.53;;
4166;SDS011;2097;51.104;7.150;2023-02-20T02:07:59;59.27;;;2.10;;
4166;SDS011;2097;51.104;7.150;2023-02-20T02:10:33;59.13;;;2.47;;
4166;SDS011;2097;51.104;7.150;2023-02-20T02:13:05;59.60;;;2.57;;
4166;SDS011;2097;51.104;7.150;2023-02-20T02:15:33;60.30;;;2.57;;
4166;SDS011;2097;51.104;7.150;2023-02-20T02:23:59;59.87;;;2.40;;
4166;SDS011;2097;51.104;7.150;2023-02-20T02:27:00;59.87;;;2.57;;
4166;SDS011;2097;51.104;7.150;2023-02-20T02:32:47;59.60;;;2.60;;
4166;SDS011;2097;51.104;7.150;2023-02-20T02:35:52;59.67;;;2.30;;
4166;SDS011;2097;51.104;7.150;2023-02-20T02:38:40;59.67;;;2.53;;
4166;SDS011;2097;51.104;7.150;2023-02-20T02:41:13;59.50;;;2.30;;
4166;SDS011;2097;51.104;7.150;2023-02-20T02:43:47;59.70;;;2.57;;
4166;SDS011;2097;51.104;7.150;2023-02-20T02:46:20;59.40;;;2.33;;
4166;SDS011;2097;51.104;7.150;2023-02-20T02:48:53;59.67;;;2.67;;
4166;SDS011;2097;51.104;7.150;2023-02-20T02:51:28;59.33;;;2.17;;
4166;SDS011;2097;51.104;7.150;2023-02-20T02:54:03;59.60;;;2.60;;
4166;SDS011;2097;51.104;7.150;2023-02-20T02:56:32;59.87;;;2.60;;
4166;SDS011;2097;51.104;7.150;2023-02-20T02:59:00;59.70;;;2.30;;
4166;SDS011;2097;51.104;7.150;2023-02-20T03:01:28;59.47;;;2.30;;
4166;SDS011;2097;51.104;7.150;2023-02-20T03:03:58;60.30;;;2.73;;
4166;SDS011;2097;51.104;7.150;2023-02-20T03:06:29;59.70;;;2.67;;
4166;SDS011;2097;51.104;7.150;2023-02-20T03:09:00;59.70;;;2.70;;
4166;SDS011;2097;51.104;7.150;2023-02-20T03:11:31;59.70;;;2.37;;
4166;SDS011;2097;51.104;7.150;2023-02-20T03:14:01;59.97;;;2.47;;
4166;SDS011;2097;51.104;7.150;2023-02-20T03:16:50;59.70;;;2.57;;
4166;SDS011;2097;51.104;7.150;2023-02-20T03:19:25;59.63;;;2.47;;
4166;SDS011;2097;51.104;7.150;2023-02-20T03:21:57;59.50;;;2.40;;
4166;SDS011;2097;51.104;7.150;2023-02-20T03:24:26;59.37;;;2.13;;
4166;SDS011;2097;51.104;7.150;2023-02-20T03:27:17;59.60;;;2.60;;
4166;SDS011;2097;51.104;7.150;2023-02-20T03:29:44;59.77;;;2.70;;
4166;SDS011;2097;51.104;7.150;2023-02-20T03:32:13;59.87;;;2.67;;
4166;SDS011;2097;51.104;7.150;2023-02-20T03:35:00;59.53;;;2.60;;
4166;SDS011;2097;51.104;7.150;2023-02-20T03:37:48;59.37;;;2.33;;
4166;SDS011;2097;51.104;7.150;2023-02-20T03:40:33;59.60;;;2.67;;
4166;SDS011;2097;51.104;7.150;2023-02-20T03:43:20;59.50;;;2.37;;
4166;SDS011;2097;51.104;7.150;2023-02-20T03:45:48;59.67;;;2.77;;
4166;SDS011;2097;51.104;7.150;2023-02-20T03:48:18;59.57;;;2.53;;
4166;SDS011;2097;51.104;7.150;2023-02-20T03:50:48;59.53;;;2.33;;
4166;SDS011;2097;51.104;7.150;2023-02-20T03:53:16;59.60;;;2.63;;
4166;SDS011;2097;51.104;7.150;2023-02-20T03:55:43;59.77;;;2.57;;
4166;SDS011;2097;51.104;7.150;2023-02-20T03:58:13;59.77;;;2.47;;
4166;SDS011;2097;51.104;7.150;2023-02-20T04:00:44;59.60;;;2.37;;
4166;SDS011;2097;51.104;7.150;2023-02-20T04:03:16;59.43;;;2.50;;
4166;SDS011;2097;51.104;7.150;2023-02-20T04:05:48;59.40;;;2.50;;
4166;SDS011;2097;51.104;7.150;2023-02-20T04:08:19;59.47;;;2.30;;
4166;SDS011;2097;51.104;7.150;2023-02-20T04:10:51;59.43;;;2.63;;
4166;SDS011;2097;51.104;7.150;2023-02-20T04:13:21;59.53;;;2.17;;
4166;SDS011;2097;51.104;7.150;2023-02-20T04:15:49;59.63;;;2.47;;
4166;SDS011;2097;51.104;7.150;2023-02-20T04:18:18;59.57;;;2.47;;
4166;SDS011;2097;51.104;7.150;2023-02-20T04:20:48;60.00;;;2.60;;
4166;SDS011;2097;51.104;7.150;2023-02-20T04:23:20;59.67;;;2.63;;
4166;SDS011;2097;51.104;7.150;2023-02-20T04:25:50;59.67;;;2.37;;
4166;SDS011;2097;51.104;7.150;2023-02-20T04:28:21;59.70;;;2.53;;
4166;SDS011;2097;51.104;7.150;2023-02-20T04:30:49;59.87;;;2.60;;
4166;SDS011;2097;51.104;7.150;2023-02-20T04:33:17;59.40;;;2.57;;
4166;SDS011;2097;51.104;7.150;2023-02-20T04:35:45;59.47;;;2.60;;
4166;SDS011;2097;51.104;7.150;2023-02-20T04:38:12;59.47;;;2.40;;
4166;SDS011;2097;51.104;7.150;2023-02-20T04:40:40;59.80;;;2.60;;
4166;SDS011;2097;51.104;7.150;2023-02-20T04:43:07;59.57;;;2.50;;
4166;SDS011;2097;51.104;7.150;2023-02-20T04:45:34;59.67;;;2.50;;
4166;SDS011;2097;51.104;7.150;2023-02-20T04:48:01;59.67;;;2.27;;
4166;SDS011;2097;51.104;7.150;2023-02-20T04:50:28;59.40;;;2.30;;
4166;SDS011;2097;51.104;7.150;2023-02-20T04:52:57;59.53;;;2.50;;
4166;SDS011;2097;51.104;7.150;2023-02-20T04:55:24;59.37;;;2.40;;
4166;SDS011;2097;51.104;7.150;2023-02-20T04:57:53;61.27;;;2.50;;
4166;SDS011;2097;51.104;7.150;2023-02-20T05:00:22;59.50;;;2.30;;
4166;SDS011;2097;51.104;7.150;2023-02-20T05:02:51;60.20;;;2.60;;
4166;SDS011;2097;51.104;7.150;2023-02-20T05:05:19;59.87;;;2.47;;
4166;SDS011;2097;51.104;7.150;2023-02-20T05:07:48;59.50;;;2.33;;
4166;SDS011;2097;51.104;7.150;2023-02-20T05:10:19;59.77;;;2.50;;
4166;SDS011;2097;51.104;7.150;2023-02-20T05:12:47;59.67;;;2.40;;
4166;SDS011;2097;51.104;7.150;2023-02-20T05:15:15;59.47;;;2.17;;
4166;SDS011;2097;51.104;7.150;2023-02-20T05:17:42;59.83;;;2.40;;
4166;SDS011;2097;51.104;7.150;2023-02-20T05:20:09;59.50;;;2.47;;
4166;SDS011;2097;51.104;7.150;2023-02-20T05:22:37;59.57;;;2.33;;
4166;SDS011;2097;51.104;7.150;2023-02-20T05:25:04;59.27;;;2.33;;
4166;SDS011;2097;51.104;7.150;2023-02-20T05:27:31;59.40;;;2.33;;
4166;SDS011;2097;51.104;7.150;2023-02-20T05:29:58;59.30;;;2.73;;
4166;SDS011;2097;51.104;7.150;2023-02-20T05:32:28;59.60;;;2.40;;
4166;SDS011;2097;51.104;7.150;2023-02-20T05:34:56;59.77;;;2.27;;
4166;SDS011;2097;51.104;7.150;2023-02-20T05:37:23;59.47;;;2.60;;
4166;SDS011;2097;51.104;7.150;2023-02-20T05:39:51;59.70;;;2.30;;
4166;SDS011;2097;51.104;7.150;2023-02-20T05:42:18;59.43;;;2.40;;
4166;SDS011;2097;51.104;7.150;2023-02-20T05:44:46;59.43;;;2.50;;
4166;SDS011;2097;51.104;7.150;2023-02-20T05:47:14;59.57;;;2.33;;
4166;SDS011;2097;51.104;7.150;2023-02-20T05:49:42;59.80;;;2.40;;
4166;SDS011;2097;51.104;7.150;2023-02-20T05:52:10;59.43;;;2.43;;
4166;SDS011;2097;51.104;7.150;2023-02-20T05:54:37;59.23;;;2.30;;
4166;SDS011;2097;51.104;7.150;2023-02-20T05:57:05;59.77;;;2.77;;
4166;SDS011;2097;51.104;7.150;2023-02-20T05:59:33;59.73;;;2.57;;
4166;SDS011;2097;51.104;7.150;2023-02-20T06:02:00;59.50;;;2.50;;
4166;SDS011;2097;51.104;7.150;2023-02-20T06:04:27;59.67;;;2.47;;
4166;SDS011;2097;51.104;7.150;2023-02-20T06:06:57;59.40;;;2.30;;
4166;SDS011;2097;51.104;7.150;2023-02-20T06:09:24;59.63;;;2.30;;
4166;SDS011;2097;51.104;7.150;2023-02-20T06:11:52;59.40;;;2.43;;
4166;SDS011;2097;51.104;7.150;2023-02-20T06:14:20;59.90;;;2.60;;
4166;SDS011;2097;51.104;7.150;2023-02-20T06:16:49;59.87;;;2.63;;
4166;SDS011;2097;51.104;7.150;2023-02-20T06:19:17;59.47;;;2.57;;
4166;SDS011;2097;51.104;7.150;2023-02-20T06:21:46;59.23;;;2.30;;
4166;SDS011;2097;51.104;7.150;2023-02-20T06:24:15;59.40;;;2.20;;
4166;SDS011;2097;51.104;7.150;2023-02-20T06:26:43;59.90;;;2.50;;
4166;SDS011;2097;51.104;7.150;2023-02-20T06:29:13;59.20;;;2.50;;
4166;SDS011;2097;51.104;7.150;2023-02-20T06:31:41;59.30;;;2.30;;
4166;SDS011;2097;51.104;7.150;2023-02-20T06:34:10;59.17;;;2.03;;
4166;SDS011;2097;51.104;7.150;2023-02-20T06:40:04;59.17;;;2.17;;
4166;SDS011;2097;51.104;7.150;2023-02-20T06:42:37;59.90;;;2.53;;
4166;SDS011;2097;51.104;7.150;2023-02-20T06:45:24;59.43;;;2.40;;
4166;SDS011;2097;51.104;7.150;2023-02-20T06:47:55;59.67;;;2.43;;
4166;SDS011;2097;51.104;7.150;2023-02-20T06:50:22;59.50;;;2.50;;
4166;SDS011;2097;51.104;7.150;2023-02-20T06:52:49;59.10;;;2.00;;
4166;SDS011;2097;51.104;7.150;2023-02-20T06:55:17;59.70;;;2.23;;
4166;SDS011;2097;51.104;7.150;2023-02-20T06:57:44;59.80;;;2.40;;
4166;SDS011;2097;51.104;7.150;2023-02-20T07:00:11;59.77;;;2.30;;
4166;SDS011;2097;51.104;7.150;2023-02-20T07:02:40;59.47;;;2.17;;
4166;SDS011;2097;51.104;7.150;2023-02-20T07:05:07;59.57;;;2.37;;
4166;SDS011;2097;51.104;7.150;2023-02-20T07:07:36;59.50;;;2.00;;
4166;SDS011;2097;51.104;7.150;2023-02-20T07:10:03;59.23;;;2.07;;
4166;SDS011;2097;51.104;7.150;2023-02-20T07:12:32;59.67;;;2.63;;
4166;SDS011;2097;51.104;7.150;2023-02-20T07:15:05;59.20;;;2.20;;
4166;SDS011;2097;51.104;7.150;2023-02-20T07:17:33;59.27;;;2.27;;
4166;SDS011;2097;51.104;7.150;2023-02-20T07:20:00;59.70;;;2.47;;
4166;SDS011;2097;51.104;7.150;2023-02-20T07:22:27;59.60;;;2.67;;
4166;SDS011;2097;51.104;7.150;2023-02-20T07:24:54;59.37;;;2.30;;
4166;SDS011;2097;51.104;7.150;2023-02-20T07:27:21;59.53;;;2.40;;
4166;SDS011;2097;51.104;7.150;2023-02-20T07:29:49;59.63;;;2.47;;
4166;SDS011;2097;51.104;7.150;2023-02-20T07:32:16;59.10;;;2.17;;
4166;SDS011;2097;51.104;7.150;2023-02-20T07:34:44;59.67;;;2.60;;
4166;SDS011;2097;51.104;7.150;2023-02-20T07:37:12;59.50;;;2.17;;
4166;SDS011;2097;51.104;7.150;2023-02-20T07:39:39;59.60;;;2.53;;
4166;SDS011;2097;51.104;7.150;2023-02-20T07:42:05;59.80;;;2.50;;
4166;SDS011;2097;51.104;7.150;2023-02-20T07:44:32;59.60;;;2.30;;
4166;SDS011;2097;51.104;7.150;2023-02-20T07:47:01;59.23;;;2.20;;
4166;SDS011;2097;51.104;7.150;2023-02-20T07:49:28;59.37;;;2.20;;
4166;SDS011;2097;51.104;7.150;2023-02-20T07:51:55;59.50;;;2.30;;
4166;SDS011;2097;51.104;7.150;2023-02-20T07:54:22;60.40;;;2.60;;
4166;SDS011;2097;51.104;7.150;2023-02-20T07:56:48;59.47;;;2.47;;
4166;SDS011;2097;51.104;7.150;2023-02-20T07:59:17;59.50;;;2.37;;
4166;SDS011;2097;51.104;7.150;2023-02-20T08:01:57;59.73;;;2.63;;
4166;SDS011;2097;51.104;7.150;2023-02-20T08:04:25;59.83;;;2.53;;
4166;SDS011;2097;51.104;7.150;2023-02-20T08:06:52;59.77;;;2.20;;
4166;SDS011;2097;51.104;7.150;2023-02-20T08:09:19;59.60;;;2.50;;
4166;SDS011;2097;51.104;7.150;2023-02-20T08:11:46;59.67;;;2.47;;
4166;SDS011;2097;51.104;7.150;2023-02-20T08:14:13;59.37;;;2.23;;
4166;SDS011;2097;51.104;7.150;2023-02-20T08:19:03;59.67;;;2.60;;
4166;SDS011;2097;51.104;7.150;2023-02-20T08:21:29;59.43;;;2.30;;
4166;SDS011;2097;51.104;7.150;2023-02-20T08:23:56;59.53;;;2.40;;
4166;SDS011;2097;51.104;7.150;2023-02-20T08:26:23;59.33;;;2.53;;
4166;SDS011;2097;51.104;7.150;2023-02-20T08:28:50;59.47;;;2.47;;
4166;SDS011;2097;51.104;7.150;2023-02-20T08:31:18;59.17;;;2.30;;
4166;SDS011;2097;51.104;7.150;2023-02-20T08:33:46;59.80;;;2.13;;
4166;SDS011;2097;51.104;7.150;2023-02-20T08:36:14;59.53;;;2.33;;
4166;SDS011;2097;51.104;7.150;2023-02-20T08:38:43;59.37;;;2.23;;
4166;SDS011;2097;51.104;7.150;2023-02-20T08:41:11;59.50;;;2.27;;
4166;SDS011;2097;51.104;7.150;2023-02-20T08:43:38;59.80;;;2.53;;
4166;SDS011;2097;51.104;7.150;2023-02-20T08:46:07;59.50;;;2.33;;
4166;SDS011;2097;51.104;7.150;2023-02-20T08:48:34;59.27;;;2.43;;
4166;SDS011;2097;51.104;7.150;2023-02-20T08:51:02;59.57;;;2.60;;
4166;SDS011;2097;51.104;7.150;2023-02-20T08:53:30;60.10;;;2.67;;
4166;SDS011;2097;51.104;7.150;2023-02-20T08:55:57;59.37;;;2.30;;
4166;SDS011;2097;51.104;7.150;2023-02-20T08:58:24;59.03;;;2.40;;
4166;SDS011;2097;51.104;7.150;2023-02-20T09:00:51;59.57;;;2.30;;
4166;SDS011;2097;51.104;7.150;2023-02-20T09:03:18;59.67;;;2.60;;
4166;SDS011;2097;51.104;7.150;2023-02-20T09:05:45;59.80;;;2.53;;
4166;SDS011;2097;51.104;7.150;2023-02-20T09:08:12;59.60;;;2.67;;
4166;SDS011;2097;51.104;7.150;2023-02-20T09:10:41;59.57;;;2.20;;
4166;SDS011;2097;51.104;7.150;2023-02-20T09:13:08;59.37;;;2.10;;
4166;SDS011;2097;51.104;7.150;2023-02-20T09:15:34;59.80;;;2.20;;
4166;SDS011;2097;51.104;7.150;2023-02-20T09:18:04;60.07;;;2.50;;
4166;SDS011;2097;51.104;7.150;2023-02-20T09:20:33;59.90;;;2.40;;
4166;SDS011;2097;51.104;7.150;2023-02-20T09:23:00;59.70;;;2.13;;
4166;SDS011;2097;51.104;7.150;2023-02-20T09:25:27;59.60;;;2.40;;
4166;SDS011;2097;51.104;7.150;2023-02-20T09:27:55;59.23;;;2.20;;
4166;SDS011;2097;51.104;7.150;2023-02-20T09:30:22;59.47;;;2.17;;
4166;SDS011;2097;51.104;7.150;2023-02-20T09:32:50;59.80;;;2.40;;
4166;SDS011;2097;51.104;7.150;2023-02-20T09:35:17;59.70;;;2.40;;
4166;SDS011;2097;51.104;7.150;2023-02-20T09:37:46;59.70;;;2.33;;
4166;SDS011;2097;51.104;7.150;2023-02-20T09:40:14;59.17;;;2.40;;
4166;SDS011;2097;51.104;7.150;2023-02-20T09:42:44;59.40;;;2.50;;
4166;SDS011;2097;51.104;7.150;2023-02-20T09:45:24;59.80;;;2.43;;
4166;SDS011;2097;51.104;7.150;2023-02-20T09:47:56;59.43;;;2.20;;
4166;SDS011;2097;51.104;7.150;2023-02-20T09:50:38;59.40;;;2.20;;
4166;SDS011;2097;51.104;7.150;2023-02-20T09:53:14;59.57;;;2.37;;
4166;SDS011;2097;51.104;7.150;2023-02-20T09:55:45;59.43;;;2.20;;
4166;SDS011;2097;51.104;7.150;2023-02-20T09:58:18;59.67;;;2.53;;
4166;SDS011;2097;51.104;7.150;2023-02-20T10:00:49;60.00;;;2.50;;
4166;SDS011;2097;51.104;7.150;2023-02-20T10:03:19;59.87;;;2.60;;
4166;SDS011;2097;51.104;7.150;2023-02-20T10:05:50;59.63;;;2.60;;
4166;SDS011;2097;51.104;7.150;2023-02-20T10:08:19;59.40;;;2.10;;
4166;SDS011;2097;51.104;7.150;2023-02-20T10:10:48;59.73;;;2.40;;
4166;SDS011;2097;51.104;7.150;2023-02-20T10:13:25;60.07;;;2.60;;
4166;SDS011;2097;51.104;7.150;2023-02-20T10:16:07;59.77;;;2.13;;
4166;SDS011;2097;51.104;7.150;2023-02-20T10:18:52;59.67;;;2.50;;
4166;SDS011;2097;51.104;7.150;2023-02-20T10:21:31;59.50;;;2.43;;
4166;SDS011;2097;51.104;7.150;2023-02-20T10:24:22;60.07;;;2.50;;
4166;SDS011;2097;51.104;7.150;2023-02-20T10:27:11;59.40;;;2.43;;
4166;SDS011;2097;51.104;7.150;2023-02-20T10:29:45;59.67;;;2.60;;
4166;SDS011;2097;51.104;7.150;2023-02-20T10:32:15;59.90;;;2.57;;
4166;SDS011;2097;51.104;7.150;2023-02-20T10:34:48;60.07;;;2.70;;
4166;SDS011;2097;51.104;7.150;2023-02-20T10:37:22;59.90;;;2.40;;
4166;SDS011;2097;51.104;7.150;2023-02-20T10:39:54;59.77;;;2.67;;
4166;SDS011;2097;51.104;7.150;2023-02-20T10:42:27;59.50;;;2.37;;
4166;SDS011;2097;51.104;7.150;2023-02-20T10:44:59;59.50;;;2.37;;
4166;SDS011;2097;51.104;7.150;2023-02-20T10:47:35;61.70;;;3.10;;
4166;SDS011;2097;51.104;7.150;2023-02-20T10:50:08;59.70;;;2.60;;
4166;SDS011;2097;51.104;7.150;2023-02-20T10:52:45;59.57;;;2.20;;
4166;SDS011;2097;51.104;7.150;2023-02-20T10:55:16;59.50;;;2.57;;
4166;SDS011;2097;51.104;7.150;2023-02-20T10:57:51;59.67;;;2.50;;
4166;SDS011;2097;51.104;7.150;2023-02-20T11:00:24;59.70;;;2.60;;
4166;SDS011;2097;51.104;7.150;2023-02-20T11:02:59;59.90;;;2.90;;
4166;SDS011;2097;51.104;7.150;2023-02-20T11:05:31;59.73;;;2.67;;
4166;SDS011;2097;51.104;7.150;2023-02-20T11:08:03;59.57;;;2.47;;
4166;SDS011;2097;51.104;7.150;2023-02-20T11:10:30;59.60;;;2.40;;
4166;SDS011;2097;51.104;7.150;2023-02-20T11:12:59;59.70;;;2.43;;
4166;SDS011;2097;51.104;7.150;2023-02-20T11:15:28;59.10;;;2.10;;
4166;SDS011;2097;51.104;7.150;2023-02-20T11:17:59;59.67;;;2.30;;
4166;SDS011;2097;51.104;7.150;2023-02-20T11:20:42;59.57;;;2.33;;
4166;SDS011;2097;51.104;7.150;2023-02-20T11:23:31;59.60;;;2.40;;
4166;SDS011;2097;51.104;7.150;2023-02-20T11:26:14;60.07;;;2.80;;
4166;SDS011;2097;51.104;7.150;2023-02-20T11:28:57;59.87;;;2.20;;
4166;SDS011;2097;51.104;7.150;2023-02-20T11:31:39;59.40;;;2.30;;
4166;SDS011;2097;51.104;7.150;2023-02-20T11:34:09;59.77;;;2.60;;
4166;SDS011;2097;51.104;7.150;2023-02-20T11:36:42;59.23;;;2.30;;
4166;SDS011;2097;51.104;7.150;2023-02-20T11:39:14;59.40;;;2.33;;
4166;SDS011;2097;51.104;7.150;2023-02-20T11:41:45;60.03;;;2.30;;
4166;SDS011;2097;51.104;7.150;2023-02-20T11:44:20;59.47;;;2.50;;
4166;SDS011;2097;51.104;7.150;2023-02-20T11:49:43;59.87;;;2.17;;
4166;SDS011;2097;51.104;7.150;2023-02-20T11:52:14;59.70;;;2.33;;
4166;SDS011;2097;51.104;7.150;2023-02-20T11:54:42;59.80;;;2.50;;
4166;SDS011;2097;51.104;7.150;2023-02-20T11:57:17;58.90;;;2.33;;
4166;SDS011;2097;51.104;7.150;2023-02-20T11:59:48;60.30;;;2.63;;
4166;SDS011;2097;51.104;7.150;2023-02-20T12:02:25;59.17;;;2.77;;
4166;SDS011;2097;51.104;7.150;2023-02-20T12:05:06;60.27;;;2.50;;
4166;SDS011;2097;51.104;7.150;2023-02-20T12:07:35;59.60;;;2.50;;
4166;SDS011;2097;51.104;7.150;2023-02-20T12:10:08;59.67;;;2.63;;
4166;SDS011;2097;51.104;7.150;2023-02-20T12:12:45;59.80;;;2.47;;
4166;SDS011;2097;51.104;7.150;2023-02-20T12:15:12;60.00;;;2.73;;
4166;SDS011;2097;51.104;7.150;2023-02-20T12:17:42;59.57;;;2.80;;
4166;SDS011;2097;51.104;7.150;2023-02-20T12:20:21;59.77;;;2.80;;
4166;SDS011;2097;51.104;7.150;2023-02-20T12:22:51;60.17;;;2.97;;
4166;SDS011;2097;51.104;7.150;2023-02-20T12:25:31;59.87;;;3.13;;
4166;SDS011;2097;51.104;7.150;2023-02-20T12:28:08;59.87;;;2.90;;
4166;SDS011;2097;51.104;7.150;2023-02-20T12:30:49;59.57;;;3.00;;
4166;SDS011;2097;51.104;7.150;2023-02-20T12:33:32;60.23;;;3.00;;
4166;SDS011;2097;51.104;7.150;2023-02-20T12:36:17;60.20;;;3.00;;
4166;SDS011;2097;51.104;7.150;2023-02-20T12:38:53;60.20;;;3.00;;
4166;SDS011;2097;51.104;7.150;2023-02-20T12:41:28;60.07;;;3.07;;
4166;SDS011;2097;51.104;7.150;2023-02-20T12:44:03;60.50;;;3.30;;
4166;SDS011;2097;51.104;7.150;2023-02-20T12:46:43;59.93;;;3.10;;
4166;SDS011;2097;51.104;7.150;2023-02-20T12:49:24;60.40;;;3.50;;
4166;SDS011;2097;51.104;7.150;2023-02-20T12:52:20;60.70;;;3.60;;
4166;SDS011;2097;51.104;7.150;2023-02-20T12:54:59;60.10;;;3.30;;
4166;SDS011;2097;51.104;7.150;2023-02-20T12:57:36;59.80;;;3.20;;
4166;SDS011;2097;51.104;7.150;2023-02-20T13:03:01;60.00;;;3.30;;
4166;SDS011;2097;51.104;7.150;2023-02-20T13:05:36;60.03;;;3.17;;
4166;SDS011;2097;51.104;7.150;2023-02-20T13:08:10;61.17;;;3.70;;
4166;SDS011;2097;51.104;7.150;2023-02-20T13:10:44;61.00;;;3.63;;
4166;SDS011;2097;51.104;7.150;2023-02-20T13:13:17;60.00;;;3.70;;
4166;SDS011;2097;51.104;7.150;2023-02-20T13:15:47;60.20;;;3.17;;
4166;SDS011;2097;51.104;7.150;2023-02-20T13:18:23;60.27;;;3.60;;
4166;SDS011;2097;51.104;7.150;2023-02-20T13:20:57;59.87;;;3.20;;
4166;SDS011;2097;51.104;7.150;2023-02-20T13:23:31;60.00;;;3.10;;
4166;SDS011;2097;51.104;7.150;2023-02-20T13:25:59;60.50;;;3.37;;
4166;SDS011;2097;51.104;7.150;2023-02-20T13:28:37;59.70;;;3.43;;
4166;SDS011;2097;51.104;7.150;2023-02-20T13:31:18;59.67;;;3.33;;
4166;SDS011;2097;51.104;7.150;2023-02-20T13:33:48;60.43;;;3.50;;
4166;SDS011;2097;51.104;7.150;2023-02-20T13:36:18;60.00;;;3.37;;
4166;SDS011;2097;51.104;7.150;2023-02-20T13:42:02;60.27;;;3.47;;
4166;SDS011;2097;51.104;7.150;2023-02-20T13:50:26;59.87;;;3.30;;
4166;SDS011;2097;51.104;7.150;2023-02-20T13:53:02;59.67;;;3.20;;
4166;SDS011;2097;51.104;7.150;2023-02-20T13:55:31;60.20;;;2.90;;
4166;SDS011;2097;51.104;7.150;2023-02-20T13:58:09;60.47;;;3.27;;
4166;SDS011;2097;51.104;7.150;2023-02-20T14:00:48;60.60;;;3.40;;
4166;SDS011;2097;51.104;7.150;2023-02-20T14:03:18;60.37;;;3.53;;
4166;SDS011;2097;51.104;7.150;2023-02-20T14:05:59;60.17;;;3.50;;
4166;SDS011;2097;51.104;7.150;2023-02-20T14:08:27;60.30;;;3.57;;
4166;SDS011;2097;51.104;7.150;2023-02-20T14:10:57;60.27;;;3.13;;
4166;SDS011;2097;51.104;7.150;2023-02-20T14:13:30;59.77;;;3.10;;
4166;SDS011;2097;51.104;7.150;2023-02-20T14:15:57;59.60;;;2.93;;
4166;SDS011;2097;51.104;7.150;2023-02-20T14:18:26;59.93;;;2.90;;
4166;SDS011;2097;51.104;7.150;2023-02-20T14:20:55;60.57;;;3.20;;
4166;SDS011;2097;51.104;7.150;2023-02-20T14:23:30;59.67;;;3.10;;
4166;SDS011;2097;51.104;7.150;2023-02-20T14:25:59;60.30;;;3.13;;
4166;SDS011;2097;51.104;7.150;2023-02-20T14:28:28;59.87;;;3.00;;
4166;SDS011;2097;51.104;7.150;2023-02-20T14:31:03;59.97;;;3.20;;
4166;SDS011;2097;51.104;7.150;2023-02-20T14:33:32;60.47;;;3.27;;
4166;SDS011;2097;51.104;7.150;2023-02-20T14:36:03;60.07;;;3.20;;
4166;SDS011;2097;51.104;7.150;2023-02-20T14:38:44;60.50;;;3.30;;
4166;SDS011;2097;51.104;7.150;2023-02-20T14:41:24;60.33;;;3.40;;
4166;SDS011;2097;51.104;7.150;2023-02-20T14:43:55;60.47;;;3.20;;
4166;SDS011;2097;51.104;7.150;2023-02-20T14:46:25;60.07;;;2.83;;
4166;SDS011;2097;51.104;7.150;2023-02-20T14:51:39;60.00;;;2.87;;
4166;SDS011;2097;51.104;7.150;2023-02-20T14:54:15;60.80;;;3.00;;
4166;SDS011;2097;51.104;7.150;2023-02-20T14:56:46;60.17;;;2.87;;
4166;SDS011;2097;51.104;7.150;2023-02-20T14:59:14;60.30;;;3.07;;
4166;SDS011;2097;51.104;7.150;2023-02-20T15:01:42;60.00;;;2.90;;
4166;SDS011;2097;51.104;7.150;2023-02-20T15:04:11;59.67;;;2.80;;
4166;SDS011;2097;51.104;7.150;2023-02-20T15:06:41;59.87;;;3.00;;
4166;SDS011;2097;51.104;7.150;2023-02-20T15:09:09;59.47;;;2.67;;
4166;SDS011;2097;51.104;7.150;2023-02-20T15:11:43;59.67;;;2.87;;
4166;SDS011;2097;51.104;7.150;2023-02-20T15:14:17;60.07;;;3.20;;
4166;SDS011;2097;51.104;7.150;2023-02-20T15:16:47;59.50;;;2.80;;
4166;SDS011;2097;51.104;7.150;2023-02-20T15:19:20;60.00;;;3.00;;
4166;SDS011;2097;51.104;7.150;2023-02-20T15:21:58;59.73;;;2.60;;
4166;SDS011;2097;51.104;7.150;2023-02-20T15:24:36;59.77;;;2.80;;
4166;SDS011;2097;51.104;7.150;2023-02-20T15:27:16;60.57;;;3.33;;
4166;SDS011;2097;51.104;7.150;2023-02-20T15:29:47;59.80;;;2.67;;
4166;SDS011;2097;51.104;7.150;2023-02-20T15:32:33;59.53;;;2.77;;
4166;SDS011;2097;51.104;7.150;2023-02-20T15:35:01;59.77;;;2.80;;
4166;SDS011;2097;51.104;7.150;2023-02-20T15:37:28;59.77;;;2.60;;
4166;SDS011;2097;51.104;7.150;2023-02-20T15:40:04;59.57;;;2.83;;
4166;SDS011;2097;51.104;7.150;2023-02-20T15:42:36;60.10;;;2.63;;
4166;SDS011;2097;51.104;7.150;2023-02-20T15:45:03;59.60;;;2.53;;
4166;SDS011;2097;51.104;7.150;2023-02-20T15:47:30;59.57;;;2.40;;
4166;SDS011;2097;51.104;7.150;2023-02-20T15:49:57;59.50;;;2.40;;
4166;SDS011;2097;51.104;7.150;2023-02-20T15:52:24;59.67;;;2.47;;
4166;SDS011;2097;51.104;7.150;2023-02-20T15:54:53;59.53;;;2.60;;
4166;SDS011;2097;51.104;7.150;2023-02-20T15:57:21;59.90;;;2.37;;